createdAt,value
2022-10-23T00:01:45.279Z,54.54
2022-10-23T00:04:25.269Z,54.52
2022-10-23T00:06:53.206Z,54.63
2022-10-23T00:09:24.469Z,54.67
2022-10-23T00:11:53.345Z,54.69
2022-10-23T00:14:25.039Z,54.72
2022-10-23T00:16:53.042Z,54.50
2022-10-23T00:19:20.832Z,54.65
2022-10-23T00:21:48.971Z,54.31
2022-10-23T00:24:16.815Z,54.32
2022-10-23T00:26:44.789Z,54.36
2022-10-23T00:29:12.765Z,54.49
2022-10-23T00:31:40.660Z,54.36
2022-10-23T00:34:09.319Z,54.43
2022-10-23T00:36:37.567Z,54.50
2022-10-23T00:39:06.400Z,54.50
2022-10-23T00:41:35.155Z,54.50
2022-10-23T00:44:29.821Z,54.62
2022-10-23T00:46:59.345Z,54.63
2022-10-23T00:49:28.397Z,54.77
2022-10-23T00:52:01.239Z,54.95
2022-10-23T00:54:38.193Z,54.76
2022-10-23T00:57:13.705Z,54.90
2022-10-23T00:59:42.309Z,54.96
2022-10-23T01:02:10.511Z,55.22
2022-10-23T01:04:39.632Z,55.24
2022-10-23T01:07:15.272Z,55.40
2022-10-23T01:10:03.598Z,55.36
2022-10-23T01:13:11.159Z,55.33
2022-10-23T01:15:57.301Z,55.55
2022-10-23T01:19:12.336Z,55.45
2022-10-23T01:21:59.127Z,55.55
2022-10-23T01:25:03.155Z,55.64
2022-10-23T01:27:40.903Z,55.77
2022-10-23T01:30:16.079Z,55.88
2022-10-23T01:33:04.584Z,56.08
2022-10-23T01:36:00.272Z,55.90
2022-10-23T01:38:39.178Z,55.79
2022-10-23T01:41:46.554Z,55.69
2022-10-23T01:44:39.402Z,56.02
2022-10-23T01:47:10.798Z,56.05
2022-10-23T01:49:54.699Z,56.22
2022-10-23T01:52:23.516Z,56.24
2022-10-23T01:54:57.031Z,56.18
2022-10-23T01:57:28.361Z,56.24
2022-10-23T02:00:09.133Z,56.11
2022-10-23T02:02:53.704Z,55.89
2022-10-23T02:05:29.542Z,56.37
2022-10-23T02:08:00.720Z,56.03
2022-10-23T02:10:43.403Z,56.02
2022-10-23T02:13:48.662Z,55.76
2022-10-23T02:16:54.524Z,55.92
2022-10-23T02:19:38.776Z,55.96
2022-10-23T02:22:29.236Z,55.84
2022-10-23T02:25:12.817Z,56.26
2022-10-23T02:27:54.059Z,56.00
2022-10-23T02:30:25.635Z,56.05
2022-10-23T02:33:08.903Z,56.04
2022-10-23T02:35:36.819Z,56.08
2022-10-23T02:38:44.385Z,56.10
2022-10-23T02:41:39.817Z,56.10
2022-10-23T02:44:31.726Z,55.98
2022-10-23T02:47:05.021Z,56.05
2022-10-23T02:50:09.928Z,56.19
2022-10-23T02:53:11.302Z,56.00
2022-10-23T02:56:17.371Z,55.99
2022-10-23T02:58:54.922Z,56.25
2022-10-23T03:01:31.567Z,56.11
2022-10-23T03:04:03.117Z,56.20
2022-10-23T03:06:33.288Z,56.04
2022-10-23T03:09:09.235Z,56.13
2022-10-23T03:11:37.190Z,56.04
2022-10-23T03:14:05.087Z,56.00
2022-10-23T03:16:32.936Z,56.11
2022-10-23T03:19:00.826Z,56.16
2022-10-23T03:21:30.899Z,56.25
2022-10-23T03:23:58.852Z,56.34
2022-10-23T03:26:35.963Z,56.17
2022-10-23T03:29:05.467Z,56.15
2022-10-23T03:31:36.991Z,56.45
2022-10-23T03:34:10.040Z,56.44
2022-10-23T03:36:39.970Z,56.53
2022-10-23T03:39:09.296Z,56.26
2022-10-23T03:41:37.179Z,56.33
2022-10-23T03:46:38.111Z,56.36
2022-10-23T03:49:06.016Z,56.79
2022-10-23T03:51:34.679Z,56.52
2022-10-23T03:54:02.738Z,56.59
2022-10-23T03:56:30.651Z,56.72
2022-10-23T03:58:58.528Z,56.73
2022-10-23T04:01:27.944Z,56.79
2022-10-23T04:03:56.168Z,56.53
2022-10-23T04:06:26.747Z,56.75
2022-10-23T04:08:57.674Z,56.96
2022-10-23T04:11:25.779Z,57.02
2022-10-23T04:13:53.779Z,56.91
2022-10-23T04:16:22.235Z,56.75
2022-10-23T04:18:50.329Z,56.88
2022-10-23T04:21:18.269Z,56.85
2022-10-23T04:23:46.227Z,56.43
2022-10-23T04:26:16.686Z,56.73
2022-10-23T04:28:44.475Z,56.77
2022-10-23T04:31:12.771Z,56.71
2022-10-23T04:33:42.663Z,56.62
2022-10-23T04:36:10.984Z,56.67
2022-10-23T04:38:40.999Z,56.51
2022-10-23T04:41:09.136Z,56.50
2022-10-23T04:43:37.601Z,56.46
2022-10-23T04:46:05.986Z,56.35
2022-10-23T04:48:34.974Z,56.15
2022-10-23T04:51:21.472Z,56.42
2022-10-23T04:54:04.358Z,56.49
2022-10-23T04:56:41.618Z,56.49
2022-10-23T04:59:14.244Z,56.45
2022-10-23T05:01:43.364Z,56.33
2022-10-23T05:04:11.437Z,56.52
2022-10-23T05:06:58.003Z,56.23
2022-10-23T05:09:46.922Z,56.42
2022-10-23T05:12:37.299Z,56.33
2022-10-23T05:15:06.028Z,56.13
2022-10-23T05:17:36.896Z,56.41
2022-10-23T05:20:09.846Z,55.95
2022-10-23T05:22:41.756Z,56.09
2022-10-23T05:25:13.658Z,55.82
2022-10-23T05:27:46.553Z,55.93
2022-10-23T05:30:17.933Z,55.75
2022-10-23T05:32:46.251Z,55.74
2022-10-23T05:35:22.061Z,55.85
2022-10-23T05:37:53.535Z,55.78
2022-10-23T05:40:24.289Z,55.76
2022-10-23T05:42:58.768Z,55.98
2022-10-23T05:45:47.467Z,55.73
2022-10-23T05:48:40.793Z,55.91
2022-10-23T05:51:37.535Z,56.01
2022-10-23T05:54:20.963Z,55.98
2022-10-23T05:57:00.305Z,55.75
2022-10-23T05:59:34.208Z,55.83
2022-10-23T06:02:34.565Z,55.67
2022-10-23T06:05:12.213Z,55.96
2022-10-23T06:07:56.848Z,55.73
2022-10-23T06:10:24.980Z,55.89
2022-10-23T06:12:53.381Z,55.85
2022-10-23T06:15:21.295Z,55.81
2022-10-23T06:18:04.926Z,55.98
2022-10-23T06:20:39.740Z,55.63
2022-10-23T06:23:21.977Z,55.54
2022-10-23T06:26:13.823Z,55.50
2022-10-23T06:28:54.098Z,55.55
2022-10-23T06:31:26.857Z,55.38
2022-10-23T06:33:58.367Z,55.53
2022-10-23T06:36:31.848Z,55.41
2022-10-23T06:39:21.671Z,55.04
2022-10-23T06:42:04.739Z,55.23
2022-10-23T06:45:04.800Z,55.25
2022-10-23T06:47:53.909Z,55.26
2022-10-23T06:50:56.595Z,54.98
2022-10-23T06:53:36.061Z,55.19
2022-10-23T06:56:12.712Z,55.34
2022-10-23T06:58:41.324Z,55.21
2022-10-23T07:01:16.759Z,55.36
2022-10-23T07:03:47.711Z,55.28
2022-10-23T07:06:18.050Z,55.01
2022-10-23T07:08:46.063Z,55.12
2022-10-23T07:11:34.004Z,54.95
2022-10-23T07:14:03.171Z,55.03
2022-10-23T07:16:32.163Z,54.91
2022-10-23T07:19:01.320Z,54.83
2022-10-23T07:21:32.449Z,55.09
2022-10-23T07:24:31.476Z,54.96
2022-10-23T07:27:01.781Z,55.04
2022-10-23T07:29:30.954Z,55.06
2022-10-23T07:32:01.118Z,54.97
2022-10-23T07:34:47.479Z,54.91
2022-10-23T07:37:23.531Z,54.76
2022-10-23T07:39:51.939Z,54.81
2022-10-23T07:42:19.997Z,54.73
2022-10-23T07:44:49.185Z,54.47
2022-10-23T07:47:17.135Z,53.93
2022-10-23T07:49:49.397Z,54.04
2022-10-23T07:52:17.790Z,53.82
2022-10-23T07:55:11.820Z,53.52
2022-10-23T07:57:46.095Z,53.58
2022-10-23T08:00:33.066Z,53.36
2022-10-23T08:03:12.846Z,53.38
2022-10-23T08:05:41.199Z,53.19
2022-10-23T08:08:10.042Z,52.99
2022-10-23T08:10:41.752Z,52.85
2022-10-23T08:13:14.237Z,52.75
2022-10-23T08:15:54.108Z,53.19
2022-10-23T08:18:51.983Z,53.22
2022-10-23T08:21:20.580Z,53.23
2022-10-23T08:23:52.808Z,53.23
2022-10-23T08:26:21.744Z,53.33
2022-10-23T08:28:49.563Z,53.36
2022-10-23T08:31:21.388Z,53.25
2022-10-23T08:34:12.348Z,53.06
2022-10-23T08:36:40.743Z,52.94
2022-10-23T08:39:09.584Z,53.04
2022-10-23T08:41:50.736Z,52.70
2022-10-23T08:44:59.220Z,52.84
2022-10-23T08:47:44.734Z,53.00
2022-10-23T08:50:47.465Z,52.99
2022-10-23T08:53:33.336Z,53.04
2022-10-23T08:56:17.936Z,52.90
2022-10-23T09:01:33.138Z,52.70
2022-10-23T09:04:02.393Z,52.47
2022-10-23T09:06:51.344Z,52.44
2022-10-23T09:09:56.793Z,52.49
2022-10-23T09:12:29.152Z,51.74
2022-10-23T09:15:22.459Z,51.71
2022-10-23T09:17:58.975Z,51.46
2022-10-23T09:20:35.199Z,51.39
2022-10-23T09:23:16.892Z,51.32
2022-10-23T09:25:47.672Z,51.15
2022-10-23T09:28:25.971Z,51.26
2022-10-23T09:30:55.703Z,50.44
2022-10-23T09:33:27.342Z,50.11
2022-10-23T09:36:02.933Z,50.31
2022-10-23T09:38:36.685Z,50.96
2022-10-23T09:41:26.507Z,50.59
2022-10-23T09:44:07.048Z,50.75
2022-10-23T09:46:44.687Z,50.68
2022-10-23T09:49:35.505Z,50.20
2022-10-23T09:52:12.331Z,49.79
2022-10-23T09:54:55.995Z,49.69
2022-10-23T09:57:37.137Z,49.22
2022-10-23T10:00:18.318Z,49.20
2022-10-23T10:02:59.815Z,49.17
2022-10-23T10:05:45.205Z,48.49
2022-10-23T10:08:36.839Z,48.48
2022-10-23T10:11:35.503Z,48.40
2022-10-23T10:14:27.811Z,48.31
2022-10-23T10:17:07.068Z,47.63
2022-10-23T10:20:10.773Z,47.76
2022-10-23T10:23:14.143Z,47.39
2022-10-23T10:29:14.439Z,47.31
2022-10-23T10:32:20.201Z,47.69
2022-10-23T10:35:19.094Z,47.20
2022-10-23T10:38:17.999Z,47.51
2022-10-23T10:41:41.655Z,47.08
2022-10-23T10:44:25.077Z,46.16
2022-10-23T10:47:38.160Z,46.78
2022-10-23T10:50:26.484Z,46.62
2022-10-23T10:53:19.973Z,46.60
2022-10-23T10:55:53.742Z,46.49
2022-10-23T10:58:47.345Z,46.31
2022-10-23T11:01:35.348Z,46.43
2022-10-23T11:04:34.778Z,46.45
2022-10-23T11:07:13.038Z,46.46
2022-10-23T11:09:43.341Z,46.00
2022-10-23T11:12:25.119Z,45.64
2022-10-23T11:14:53.233Z,45.21
2022-10-23T11:17:30.404Z,45.12
2022-10-23T11:20:00.107Z,45.34
2022-10-23T11:23:22.365Z,45.52
2022-10-23T11:26:33.003Z,44.99
2022-10-23T11:29:30.119Z,44.76
2022-10-23T11:32:38.287Z,45.00
2022-10-23T11:35:30.812Z,44.89
2022-10-23T11:38:18.931Z,44.85
2022-10-23T11:43:50.686Z,44.69
2022-10-23T11:46:27.266Z,44.32
2022-10-23T11:48:57.019Z,44.07
2022-10-23T11:51:41.643Z,44.56
2022-10-23T11:54:13.602Z,44.16
2022-10-23T11:57:16.207Z,44.05
2022-10-23T11:59:49.795Z,43.73
2022-10-23T12:02:37.599Z,43.71
2022-10-23T12:05:29.538Z,43.74
2022-10-23T12:08:00.656Z,43.54
2022-10-23T12:10:43.641Z,43.32
2022-10-23T12:13:44.941Z,43.60
2022-10-23T12:16:14.040Z,43.90
2022-10-23T12:18:54.098Z,43.82
2022-10-23T12:21:29.303Z,43.11
2022-10-23T12:24:27.227Z,43.53
2022-10-23T12:27:09.825Z,43.46
2022-10-23T12:30:00.330Z,43.36
2022-10-23T12:32:30.801Z,43.04
2022-10-23T12:35:38.989Z,43.46
2022-10-23T12:38:22.711Z,43.01
2022-10-23T12:41:30.858Z,43.39
2022-10-23T12:44:05.852Z,42.77
2022-10-23T12:46:48.344Z,42.90
2022-10-23T12:49:20.508Z,43.02
2022-10-23T12:52:02.042Z,42.89
2022-10-23T12:54:40.109Z,42.78
2022-10-23T12:57:27.374Z,43.10
2022-10-23T13:00:10.548Z,42.65
2022-10-23T13:02:38.492Z,42.93
2022-10-23T13:05:12.897Z,42.59
2022-10-23T13:07:47.395Z,42.48
2022-10-23T13:10:21.571Z,42.38
2022-10-23T13:13:07.644Z,42.61
2022-10-23T13:15:41.949Z,42.17
2022-10-23T13:18:14.532Z,42.19
2022-10-23T13:20:54.594Z,42.02
2022-10-23T13:23:34.479Z,42.12
2022-10-23T13:26:04.646Z,41.70
2022-10-23T13:28:44.720Z,42.17
2022-10-23T13:31:12.516Z,41.97
2022-10-23T13:33:53.451Z,42.02
2022-10-23T13:36:24.546Z,42.08
2022-10-23T13:39:10.257Z,42.34
2022-10-23T13:41:44.810Z,42.31
2022-10-23T13:44:20.339Z,42.42
2022-10-23T13:46:48.761Z,42.09
2022-10-23T13:49:16.778Z,42.56
2022-10-23T13:51:54.595Z,42.35
2022-10-23T13:57:01.328Z,42.70
2022-10-23T13:59:29.161Z,42.54
2022-10-23T14:01:57.199Z,42.57
2022-10-23T14:04:25.151Z,42.63
2022-10-23T14:06:58.479Z,42.31
2022-10-23T14:09:26.490Z,42.53
2022-10-23T14:11:54.311Z,42.54
2022-10-23T14:14:22.162Z,42.50
2022-10-23T14:16:49.971Z,42.68
2022-10-23T14:19:17.768Z,42.47
2022-10-23T14:21:45.564Z,42.78
2022-10-23T14:24:14.803Z,42.69
2022-10-23T14:26:43.270Z,42.71
2022-10-23T14:29:18.437Z,43.04
2022-10-23T14:31:49.351Z,43.04
2022-10-23T14:34:17.364Z,43.09
2022-10-23T14:36:50.499Z,43.34
2022-10-23T14:39:24.626Z,43.27
2022-10-23T14:41:52.651Z,43.16
2022-10-23T14:44:20.600Z,43.13
2022-10-23T14:46:48.416Z,43.21
2022-10-23T14:49:16.273Z,43.78
2022-10-23T14:51:44.136Z,43.68
2022-10-23T14:54:11.985Z,43.71
2022-10-23T14:56:40.902Z,44.14
2022-10-23T14:59:10.830Z,44.06
2022-10-23T15:01:45.613Z,44.02
2022-10-23T15:04:16.169Z,44.17
2022-10-23T15:06:46.365Z,44.27
2022-10-23T15:09:15.374Z,44.52
2022-10-23T15:11:43.655Z,44.61
2022-10-23T15:14:12.185Z,44.83
2022-10-23T15:16:43.280Z,45.17
2022-10-23T15:19:17.160Z,45.40
2022-10-23T15:21:49.823Z,45.61
2022-10-23T15:24:18.942Z,45.67
2022-10-23T15:26:47.602Z,45.79
2022-10-23T15:29:15.720Z,45.90
2022-10-23T15:31:57.256Z,46.12
2022-10-23T15:34:28.436Z,46.07
2022-10-23T15:36:57.767Z,46.52
2022-10-23T15:39:35.603Z,46.67
2022-10-23T15:42:06.030Z,47.00
2022-10-23T15:44:34.333Z,47.10
2022-10-23T15:47:02.207Z,47.25
2022-10-23T15:49:31.097Z,47.48
2022-10-23T15:51:59.320Z,47.23
2022-10-23T15:54:30.533Z,47.81
2022-10-23T15:57:01.520Z,47.89
2022-10-23T15:59:32.814Z,47.68
2022-10-23T16:02:00.816Z,47.45
2022-10-23T16:04:29.007Z,47.51
2022-10-23T16:06:56.824Z,47.84
2022-10-23T16:09:24.709Z,47.60
2022-10-23T16:11:52.540Z,47.38
2022-10-23T16:14:20.461Z,47.52
2022-10-23T16:16:48.349Z,47.58
2022-10-23T16:19:16.185Z,47.54
2022-10-23T16:21:44.075Z,47.90
2022-10-23T16:24:12.177Z,47.43
2022-10-23T16:26:40.569Z,47.70
2022-10-23T16:29:09.990Z,47.46
2022-10-23T16:31:38.101Z,47.80
2022-10-23T16:34:06.974Z,47.75
2022-10-23T16:36:35.242Z,47.72
2022-10-23T16:39:23.357Z,47.84
2022-10-23T16:42:09.643Z,47.28
2022-10-23T16:44:56.832Z,47.30
2022-10-23T16:47:24.779Z,47.27
2022-10-23T16:49:52.624Z,47.25
2022-10-23T16:52:20.432Z,47.03
2022-10-23T16:54:48.300Z,47.28
2022-10-23T16:57:16.702Z,47.44
2022-10-23T16:59:45.449Z,47.36
2022-10-23T17:02:13.846Z,47.70
2022-10-23T17:04:41.843Z,47.51
2022-10-23T17:07:10.166Z,47.05
2022-10-23T17:09:38.503Z,47.24
2022-10-23T17:12:06.961Z,46.61
2022-10-23T17:14:34.946Z,46.17
2022-10-23T17:17:03.706Z,45.69
2022-10-23T17:19:44.204Z,45.68
2022-10-23T17:22:13.871Z,45.21
2022-10-23T17:24:45.179Z,45.11
2022-10-23T17:27:15.403Z,44.56
2022-10-23T17:29:43.271Z,44.77
2022-10-23T17:32:11.177Z,44.84
2022-10-23T17:34:39.086Z,44.72
2022-10-23T17:37:08.010Z,44.70
2022-10-23T17:39:36.060Z,44.94
2022-10-23T17:42:04.003Z,45.00
2022-10-23T17:44:31.877Z,44.82
2022-10-23T17:46:59.694Z,44.91
2022-10-23T17:49:27.701Z,44.65
2022-10-23T17:51:57.797Z,44.81
2022-10-23T17:54:27.593Z,45.30
2022-10-23T17:56:55.982Z,45.39
2022-10-23T17:59:24.159Z,45.01
2022-10-23T18:01:52.136Z,45.33
2022-10-23T18:04:21.848Z,45.17
2022-10-23T18:06:53.682Z,45.00
2022-10-23T18:09:23.118Z,45.17
2022-10-23T18:11:51.803Z,46.28
2022-10-23T18:14:21.451Z,45.65
2022-10-23T18:16:49.605Z,45.73
2022-10-23T18:19:18.763Z,45.55
2022-10-23T18:21:47.871Z,45.27
2022-10-23T18:24:17.043Z,44.84
2022-10-23T18:26:47.730Z,45.87
2022-10-23T18:29:17.589Z,46.89
2022-10-23T18:31:48.324Z,47.21
2022-10-23T18:34:23.231Z,47.93
2022-10-23T18:36:54.942Z,48.55
2022-10-23T18:39:25.331Z,48.24
2022-10-23T18:41:57.907Z,47.74
2022-10-23T18:44:29.101Z,47.92
2022-10-23T18:46:59.272Z,47.57
2022-10-23T18:49:28.010Z,47.34
2022-10-23T18:51:56.051Z,47.54
2022-10-23T18:54:24.005Z,47.91
2022-10-23T18:56:52.005Z,47.72
2022-10-23T18:59:21.488Z,48.13
2022-10-23T19:01:50.306Z,48.30
2022-10-23T19:04:18.692Z,48.29
2022-10-23T19:06:48.192Z,48.56
2022-10-23T19:09:16.544Z,48.14
2022-10-23T19:11:45.550Z,48.19
2022-10-23T19:14:13.512Z,48.35
2022-10-23T19:16:59.164Z,48.70
2022-10-23T19:19:32.423Z,48.88
2022-10-23T19:22:02.589Z,49.15
2022-10-23T19:24:41.016Z,49.12
2022-10-23T19:27:09.559Z,49.17
2022-10-23T19:29:42.487Z,49.32
2022-10-23T19:32:10.704Z,49.10
2022-10-23T19:34:39.102Z,49.11
2022-10-23T19:37:07.165Z,48.98
2022-10-23T19:39:35.390Z,49.65
2022-10-23T19:42:03.360Z,49.26
2022-10-23T19:44:31.518Z,49.43
2022-10-23T19:46:59.358Z,49.45
2022-10-23T19:49:27.336Z,49.48
2022-10-23T19:51:55.179Z,49.38
2022-10-23T19:54:23.044Z,49.09
2022-10-23T19:56:50.912Z,49.08
2022-10-23T19:59:19.170Z,49.28
2022-10-23T20:01:48.880Z,49.00
2022-10-23T20:04:18.724Z,48.73
2022-10-23T20:06:47.593Z,48.90
2022-10-23T20:09:15.532Z,49.02
2022-10-23T20:11:45.315Z,49.01
2022-10-23T20:14:13.502Z,49.28
2022-10-23T20:16:44.968Z,49.39
2022-10-23T20:21:48.337Z,49.15
2022-10-23T20:24:18.679Z,48.95
2022-10-23T20:26:50.143Z,48.64
2022-10-23T20:29:18.526Z,48.75
2022-10-23T20:31:46.692Z,48.25
2022-10-23T20:34:14.647Z,48.31
2022-10-23T20:36:49.559Z,47.92
2022-10-23T20:39:29.658Z,47.85
2022-10-23T20:41:57.599Z,47.59
2022-10-23T20:44:25.454Z,47.51
2022-10-23T20:46:53.375Z,47.30
2022-10-23T20:49:22.286Z,46.72
2022-10-23T20:51:55.758Z,46.24
2022-10-23T20:54:26.949Z,46.23
2022-10-23T20:56:57.082Z,46.07
2022-10-23T20:59:25.470Z,45.88
2022-10-23T21:01:55.448Z,46.10
2022-10-23T21:04:27.696Z,45.79
2022-10-23T21:07:09.489Z,45.88
2022-10-23T21:09:39.334Z,45.80
2022-10-23T21:12:08.358Z,45.49
2022-10-23T21:14:36.714Z,45.36
2022-10-23T21:17:04.858Z,45.58
2022-10-23T21:19:32.736Z,45.64
2022-10-23T21:22:00.585Z,45.39
2022-10-23T21:24:28.435Z,45.34
2022-10-23T21:26:56.233Z,45.61
2022-10-23T21:29:24.071Z,45.23
2022-10-23T21:31:55.791Z,45.19
2022-10-23T21:34:25.187Z,45.32
2022-10-23T21:37:11.997Z,45.32
2022-10-23T21:39:46.006Z,45.29
2022-10-23T21:42:15.178Z,45.24
2022-10-23T21:44:43.345Z,45.12
2022-10-23T21:47:11.233Z,44.79
2022-10-23T21:49:39.140Z,44.91
2022-10-23T21:52:06.957Z,45.09
2022-10-23T21:54:34.843Z,44.79
2022-10-23T21:57:03.565Z,44.92
2022-10-23T21:59:33.129Z,45.27
2022-10-23T22:02:04.239Z,45.01
2022-10-23T22:04:32.564Z,44.79
2022-10-23T22:07:00.404Z,44.76
2022-10-23T22:09:28.699Z,44.95
2022-10-23T22:14:24.121Z,44.43
2022-10-23T22:16:52.662Z,44.68
2022-10-23T22:19:22.474Z,44.75
2022-10-23T22:21:51.766Z,44.36
2022-10-23T22:24:20.151Z,44.39
2022-10-23T22:26:53.193Z,44.14
2022-10-23T22:29:25.237Z,44.28
2022-10-23T22:31:53.579Z,44.29
2022-10-23T22:37:16.696Z,44.23
2022-10-23T22:39:44.501Z,43.83
2022-10-23T22:42:12.386Z,44.25
2022-10-23T22:44:40.199Z,44.06
2022-10-23T22:47:08.263Z,44.09
2022-10-23T22:49:36.117Z,44.11
2022-10-23T22:52:04.185Z,43.97
2022-10-23T22:54:32.130Z,43.82
2022-10-23T22:57:00.075Z,44.41
2022-10-23T22:59:27.979Z,44.15
2022-10-23T23:01:56.074Z,44.09
2022-10-23T23:04:39.575Z,44.17
2022-10-23T23:07:10.430Z,44.36
2022-10-23T23:09:41.565Z,44.40
2022-10-23T23:12:12.707Z,44.19
2022-10-23T23:14:41.399Z,44.20
2022-10-23T23:17:10.325Z,44.35
2022-10-23T23:19:38.667Z,44.36
2022-10-23T23:22:06.740Z,44.12
2022-10-23T23:24:34.600Z,44.11
2022-10-23T23:27:02.579Z,44.19
2022-10-23T23:29:30.388Z,44.49
2022-10-23T23:31:58.453Z,44.33
2022-10-23T23:34:26.555Z,44.43
2022-10-23T23:36:54.396Z,44.44
2022-10-23T23:39:22.281Z,44.67
2022-10-23T23:41:50.111Z,44.54
2022-10-23T23:44:17.941Z,44.53
2022-10-23T23:46:45.780Z,44.87
2022-10-23T23:49:13.637Z,44.85
2022-10-23T23:51:42.042Z,44.72
2022-10-23T23:54:10.192Z,44.87
2022-10-23T23:56:38.177Z,44.77
2022-10-23T23:59:06.033Z,45.07
